sensor_id;sensor_type;location;lat;lon;timestamp;pressure;altitude;pressure_sealevel;temperature;humidity
42621;BME280;28252;53.336;-6.298;2023-02-24T00:01:14;101645.44;;;19.47;98.10
42621;BME280;28252;53.336;-6.298;2023-02-24T00:01:58;101651.00;;;19.45;98.15
42621;BME280;28252;53.336;-6.298;2023-02-24T00:02:33;101642.88;;;19.45;97.64
42621;BME280;28252;53.336;-6.298;2023-02-24T00:03:06;101645.59;;;19.45;98.13
42621;BME280;28252;53.336;-6.298;2023-02-24T00:03:43;101645.59;;;19.45;97.79
42621;BME280;28252;53.336;-6.298;2023-02-24T00:04:19;101644.75;;;19.45;97.91
42621;BME280;28252;53.336;-6.298;2023-02-24T00:04:53;101638.47;;;19.44;97.63
42621;BME280;28252;53.336;-6.298;2023-02-24T00:05:29;101642.19;;;19.43;98.21
42621;BME280;28252;53.336;-6.298;2023-02-24T00:06:03;101642.19;;;19.43;98.01
42621;BME280;28252;53.336;-6.298;2023-02-24T00:06:44;101636.78;;;19.43;97.58
42621;BME280;28252;53.336;-6.298;2023-02-24T00:07:17;101643.16;;;19.42;97.60
42621;BME280;28252;53.336;-6.298;2023-02-24T00:07:49;101635.06;;;19.42;97.83
42621;BME280;28252;53.336;-6.298;2023-02-24T00:08:23;101637.91;;;19.40;98.08
42621;BME280;28252;53.336;-6.298;2023-02-24T00:08:56;101632.50;;;19.40;98.13
42621;BME280;28252;53.336;-6.298;2023-02-24T00:09:29;101635.19;;;19.40;97.97
42621;BME280;28252;53.336;-6.298;2023-02-24T00:10:06;101626.25;;;19.40;97.86
42621;BME280;28252;53.336;-6.298;2023-02-24T00:10:44;101629.94;;;19.39;97.88
42621;BME280;28252;53.336;-6.298;2023-02-24T00:11:21;101632.63;;;19.39;98.35
42621;BME280;28252;53.336;-6.298;2023-02-24T00:12:28;101630.81;;;19.39;98.34
42621;BME280;28252;53.336;-6.298;2023-02-24T00:12:59;101628.25;;;19.38;98.01
42621;BME280;28252;53.336;-6.298;2023-02-24T00:13:30;101630.06;;;19.37;98.22
42621;BME280;28252;53.336;-6.298;2023-02-24T00:14:13;101626.53;;;19.37;98.09
42621;BME280;28252;53.336;-6.298;2023-02-24T00:14:50;101625.69;;;19.36;98.17
42621;BME280;28252;53.336;-6.298;2023-02-24T00:15:23;101626.53;;;19.37;97.98
42621;BME280;28252;53.336;-6.298;2023-02-24T00:16:00;101630.25;;;19.36;98.08
42621;BME280;28252;53.336;-6.298;2023-02-24T00:16:38;101628.53;;;19.35;98.03
42621;BME280;28252;53.336;-6.298;2023-02-24T00:17:11;101627.53;;;19.36;98.23
42621;BME280;28252;53.336;-6.298;2023-02-24T00:17:51;101626.81;;;19.34;98.50
42621;BME280;28252;53.336;-6.298;2023-02-24T00:18:21;101621.41;;;19.34;98.05
42621;BME280;28252;53.336;-6.298;2023-02-24T00:18:55;101632.22;;;19.34;97.95
42621;BME280;28252;53.336;-6.298;2023-02-24T00:19:30;101630.53;;;19.33;97.98
42621;BME280;28252;53.336;-6.298;2023-02-24T00:20:09;101633.22;;;19.33;98.04
42621;BME280;28252;53.336;-6.298;2023-02-24T00:20:41;101635.94;;;19.33;98.17
42621;BME280;28252;53.336;-6.298;2023-02-24T00:21:18;101639.59;;;19.32;98.37
42621;BME280;28252;53.336;-6.298;2023-02-24T00:21:54;101637.06;;;19.30;98.57
42621;BME280;28252;53.336;-6.298;2023-02-24T00:22:27;101633.38;;;19.31;98.67
42621;BME280;28252;53.336;-6.298;2023-02-24T00:23:01;101641.47;;;19.31;98.01
42621;BME280;28252;53.336;-6.298;2023-02-24T00:23:36;101636.06;;;19.31;97.89
42621;BME280;28252;53.336;-6.298;2023-02-24T00:24:10;101630.81;;;19.30;98.05
42621;BME280;28252;53.336;-6.298;2023-02-24T00:24:43;101627.25;;;19.29;98.27
42621;BME280;28252;53.336;-6.298;2023-02-24T00:25:19;101630.81;;;19.30;97.92
42621;BME280;28252;53.336;-6.298;2023-02-24T00:25:58;101637.19;;;19.29;98.48
42621;BME280;28252;53.336;-6.298;2023-02-24T00:26:34;101632.81;;;19.28;98.38
42621;BME280;28252;53.336;-6.298;2023-02-24T00:27:05;101639.03;;;19.28;98.33
42621;BME280;28252;53.336;-6.298;2023-02-24T00:27:41;101638.19;;;19.28;98.34
42621;BME280;28252;53.336;-6.298;2023-02-24T00:28:14;101631.91;;;19.27;97.95
42621;BME280;28252;53.336;-6.298;2023-02-24T00:28:50;101631.91;;;19.27;98.32
42621;BME280;28252;53.336;-6.298;2023-02-24T00:29:23;101628.50;;;19.25;98.59
42621;BME280;28252;53.336;-6.298;2023-02-24T00:29:59;101635.63;;;19.26;98.48
42621;BME280;28252;53.336;-6.298;2023-02-24T00:30:32;101632.22;;;19.24;98.27
42621;BME280;28252;53.336;-6.298;2023-02-24T00:31:09;101630.38;;;19.25;98.25
42621;BME280;28252;53.336;-6.298;2023-02-24T00:31:43;101630.38;;;19.25;97.95
42621;BME280;28252;53.336;-6.298;2023-02-24T00:32:14;101633.06;;;19.25;98.13
42621;BME280;28252;53.336;-6.298;2023-02-24T00:32:52;101630.38;;;19.25;98.18
42621;BME280;28252;53.336;-6.298;2023-02-24T00:33:33;101636.75;;;19.23;98.73
42621;BME280;28252;53.336;-6.298;2023-02-24T00:34:07;101629.66;;;19.22;98.09
42621;BME280;28252;53.336;-6.298;2023-02-24T00:34:38;101635.06;;;19.22;98.40
42621;BME280;28252;53.336;-6.298;2023-02-24T00:35:13;101629.66;;;19.22;98.36
42621;BME280;28252;53.336;-6.298;2023-02-24T00:35:49;101622.53;;;19.21;98.28
42621;BME280;28252;53.336;-6.298;2023-02-24T00:36:21;101627.94;;;19.21;98.00
42621;BME280;28252;53.336;-6.298;2023-02-24T00:36:56;101625.25;;;19.21;98.50
42621;BME280;28252;53.336;-6.298;2023-02-24T00:37:32;101622.69;;;19.20;98.33
42621;BME280;28252;53.336;-6.298;2023-02-24T00:38:04;101626.22;;;19.20;98.51
42621;BME280;28252;53.336;-6.298;2023-02-24T00:38:38;101619.97;;;19.20;98.53
42621;BME280;28252;53.336;-6.298;2023-02-24T00:39:09;101616.56;;;19.18;98.66
42621;BME280;28252;53.336;-6.298;2023-02-24T00:39:43;101622.81;;;19.18;98.45
42621;BME280;28252;53.336;-6.298;2023-02-24T00:40:16;101620.25;;;19.17;98.42
42621;BME280;28252;53.336;-6.298;2023-02-24T00:40:53;101621.13;;;19.17;98.68
42621;BME280;28252;53.336;-6.298;2023-02-24T00:41:30;101616.72;;;19.16;98.37
42621;BME280;28252;53.336;-6.298;2023-02-24T00:42:07;101622.13;;;19.16;98.65
42621;BME280;28252;53.336;-6.298;2023-02-24T00:42:43;101624.94;;;19.15;98.48
42621;BME280;28252;53.336;-6.298;2023-02-24T00:43:14;101625.97;;;19.14;98.72
42621;BME280;28252;53.336;-6.298;2023-02-24T00:43:47;101620.56;;;19.14;99.20
42621;BME280;28252;53.336;-6.298;2023-02-24T00:44:20;101628.66;;;19.14;98.62
42621;BME280;28252;53.336;-6.298;2023-02-24T00:44:54;101625.97;;;19.14;98.99
42621;BME280;28252;53.336;-6.298;2023-02-24T00:45:29;101625.09;;;19.13;98.71
42621;BME280;28252;53.336;-6.298;2023-02-24T00:46:08;101625.22;;;19.12;98.60
42621;BME280;28252;53.336;-6.298;2023-02-24T00:46:45;101620.84;;;19.11;98.92
42621;BME280;28252;53.336;-6.298;2023-02-24T00:47:21;101621.69;;;19.11;98.95
42621;BME280;28252;53.336;-6.298;2023-02-24T00:47:55;101617.25;;;19.10;99.22
42621;BME280;28252;53.336;-6.298;2023-02-24T00:48:27;101615.59;;;19.09;98.70
42621;BME280;28252;53.336;-6.298;2023-02-24T00:48:58;101612.88;;;19.09;99.22
42621;BME280;28252;53.336;-6.298;2023-02-24T00:49:37;101612.03;;;19.09;99.09
42621;BME280;28252;53.336;-6.298;2023-02-24T00:50:14;101611.16;;;19.08;98.97
42621;BME280;28252;53.336;-6.298;2023-02-24T00:50:47;101611.16;;;19.08;98.91
42621;BME280;28252;53.336;-6.298;2023-02-24T00:51:24;101609.47;;;19.07;99.14
42621;BME280;28252;53.336;-6.298;2023-02-24T00:51:56;101614.00;;;19.07;99.41
42621;BME280;28252;53.336;-6.298;2023-02-24T00:52:30;101618.56;;;19.06;98.71
42621;BME280;28252;53.336;-6.298;2023-02-24T00:53:04;101618.56;;;19.06;99.29
42621;BME280;28252;53.336;-6.298;2023-02-24T00:53:38;101623.94;;;19.06;98.83
42621;BME280;28252;53.336;-6.298;2023-02-24T00:54:11;101616.84;;;19.05;98.98
42621;BME280;28252;53.336;-6.298;2023-02-24T00:54:45;101616.00;;;19.04;99.27
42621;BME280;28252;53.336;-6.298;2023-02-24T00:55:23;101613.28;;;19.04;98.86
42621;BME280;28252;53.336;-6.298;2023-02-24T00:55:57;101616.00;;;19.04;99.14
42621;BME280;28252;53.336;-6.298;2023-02-24T00:56:36;101613.28;;;19.04;98.99
42621;BME280;28252;53.336;-6.298;2023-02-24T00:57:08;101617.84;;;19.04;99.39
42621;BME280;28252;53.336;-6.298;2023-02-24T00:57:41;101610.72;;;19.03;98.96
42621;BME280;28252;53.336;-6.298;2023-02-24T00:58:12;101611.75;;;19.02;99.04
42621;BME280;28252;53.336;-6.298;2023-02-24T00:58:52;101609.88;;;19.02;99.24
42621;BME280;28252;53.336;-6.298;2023-02-24T00:59:30;101609.88;;;19.02;99.18
42621;BME280;28252;53.336;-6.298;2023-02-24T01:00:01;101607.31;;;19.01;99.25
42621;BME280;28252;53.336;-6.298;2023-02-24T01:00:37;101605.47;;;19.01;99.09
42621;BME280;28252;53.336;-6.298;2023-02-24T01:01:18;101603.78;;;19.00;99.01
42621;BME280;28252;53.336;-6.298;2023-02-24T01:01:49;101602.91;;;19.00;99.07
42621;BME280;28252;53.336;-6.298;2023-02-24T01:02:21;101602.91;;;19.00;99.31
42621;BME280;28252;53.336;-6.298;2023-02-24T01:02:54;101599.38;;;18.99;99.29
42621;BME280;28252;53.336;-6.298;2023-02-24T01:03:29;101595.81;;;18.99;99.21
42621;BME280;28252;53.336;-6.298;2023-02-24T01:04:03;101600.22;;;19.00;99.38
42621;BME280;28252;53.336;-6.298;2023-02-24T01:04:35;101606.63;;;18.99;99.29
42621;BME280;28252;53.336;-6.298;2023-02-24T01:05:07;101600.34;;;18.98;99.25
42621;BME280;28252;53.336;-6.298;2023-02-24T01:05:41;101595.13;;;18.97;99.41
42621;BME280;28252;53.336;-6.298;2023-02-24T01:06:17;101598.78;;;18.96;99.16
42621;BME280;28252;53.336;-6.298;2023-02-24T01:06:53;101592.41;;;18.97;99.00
42621;BME280;28252;53.336;-6.298;2023-02-24T01:07:31;101590.69;;;18.96;99.02
42621;BME280;28252;53.336;-6.298;2023-02-24T01:08:08;101590.69;;;18.96;99.11
42621;BME280;28252;53.336;-6.298;2023-02-24T01:08:42;101598.78;;;18.96;98.93
42621;BME280;28252;53.336;-6.298;2023-02-24T01:09:19;101598.94;;;18.94;99.41
42621;BME280;28252;53.336;-6.298;2023-02-24T01:09:57;101593.53;;;18.94;99.35
42621;BME280;28252;53.336;-6.298;2023-02-24T01:10:37;101590.84;;;18.94;99.28
42621;BME280;28252;53.336;-6.298;2023-02-24T01:11:13;101590.97;;;18.93;99.61
42621;BME280;28252;53.336;-6.298;2023-02-24T01:12:06;101593.66;;;18.93;99.35
42621;BME280;28252;53.336;-6.298;2023-02-24T01:12:57;101597.38;;;18.92;99.36
42621;BME280;28252;53.336;-6.298;2023-02-24T01:13:30;101600.06;;;18.92;99.64
42621;BME280;28252;53.336;-6.298;2023-02-24T01:14:05;101592.97;;;18.91;99.79
42621;BME280;28252;53.336;-6.298;2023-02-24T01:14:45;101593.94;;;18.90;99.95
42621;BME280;28252;53.336;-6.298;2023-02-24T01:15:23;101602.03;;;18.90;99.79
42621;BME280;28252;53.336;-6.298;2023-02-24T01:16:02;101598.34;;;18.91;99.79
42621;BME280;28252;53.336;-6.298;2023-02-24T01:16:35;101602.19;;;18.88;99.72
42621;BME280;28252;53.336;-6.298;2023-02-24T01:17:08;101596.63;;;18.90;99.78
42621;BME280;28252;53.336;-6.298;2023-02-24T01:17:43;101593.22;;;18.88;99.69
42621;BME280;28252;53.336;-6.298;2023-02-24T01:18:16;101588.69;;;18.88;99.70
42621;BME280;28252;53.336;-6.298;2023-02-24T01:18:52;101594.94;;;18.89;99.72
42621;BME280;28252;53.336;-6.298;2023-02-24T01:19:28;101598.63;;;18.88;99.96
42621;BME280;28252;53.336;-6.298;2023-02-24T01:20:00;101597.78;;;18.87;99.80
42621;BME280;28252;53.336;-6.298;2023-02-24T01:20:45;101592.53;;;18.85;99.82
42621;BME280;28252;53.336;-6.298;2023-02-24T01:21:17;101588.97;;;18.85;99.95
42621;BME280;28252;53.336;-6.298;2023-02-24T01:21:53;101588.09;;;18.84;99.81
42621;BME280;28252;53.336;-6.298;2023-02-24T01:22:30;101583.59;;;18.85;99.61
42621;BME280;28252;53.336;-6.298;2023-02-24T01:23:03;101585.41;;;18.84;99.84
42621;BME280;28252;53.336;-6.298;2023-02-24T01:23:34;101586.41;;;18.83;100.00
42621;BME280;28252;53.336;-6.298;2023-02-24T01:24:07;101580.16;;;18.83;100.00
42621;BME280;28252;53.336;-6.298;2023-02-24T01:24:43;101576.59;;;18.82;100.00
42621;BME280;28252;53.336;-6.298;2023-02-24T01:25:18;101576.59;;;18.82;100.00
42621;BME280;28252;53.336;-6.298;2023-02-24T01:25:52;101574.88;;;18.81;100.00
42621;BME280;28252;53.336;-6.298;2023-02-24T01:26:25;101572.19;;;18.81;100.00
42621;BME280;28252;53.336;-6.298;2023-02-24T01:26:58;101580.16;;;18.83;100.00
42621;BME280;28252;53.336;-6.298;2023-02-24T01:27:29;101574.88;;;18.81;100.00
42621;BME280;28252;53.336;-6.298;2023-02-24T01:28:03;101572.19;;;18.81;100.00
42621;BME280;28252;53.336;-6.298;2023-02-24T01:28:34;101577.59;;;18.81;100.00
42621;BME280;28252;53.336;-6.298;2023-02-24T01:29:11;101575.88;;;18.80;100.00
42621;BME280;28252;53.336;-6.298;2023-02-24T01:29:49;101573.16;;;18.80;100.00
42621;BME280;28252;53.336;-6.298;2023-02-24T01:30:25;101569.63;;;18.80;100.00
42621;BME280;28252;53.336;-6.298;2023-02-24T01:31:02;101571.44;;;18.79;100.00
42621;BME280;28252;53.336;-6.298;2023-02-24T01:31:37;101562.50;;;18.79;100.00
42621;BME280;28252;53.336;-6.298;2023-02-24T01:32:19;101566.06;;;18.79;100.00
42621;BME280;28252;53.336;-6.298;2023-02-24T01:32:50;101564.38;;;18.78;100.00
42621;BME280;28252;53.336;-6.298;2023-02-24T01:33:21;101564.38;;;18.78;100.00
42621;BME280;28252;53.336;-6.298;2023-02-24T01:33:55;101571.59;;;18.78;100.00
42621;BME280;28252;53.336;-6.298;2023-02-24T01:34:31;101559.09;;;18.77;100.00
42621;BME280;28252;53.336;-6.298;2023-02-24T01:35:07;101557.25;;;18.77;100.00
42621;BME280;28252;53.336;-6.298;2023-02-24T01:35:43;101565.34;;;18.77;100.00
42621;BME280;28252;53.336;-6.298;2023-02-24T01:36:24;101561.81;;;18.77;100.00
42621;BME280;28252;53.336;-6.298;2023-02-24T01:37:00;101560.97;;;18.76;100.00
42621;BME280;28252;53.336;-6.298;2023-02-24T01:37:33;101560.22;;;18.74;100.00
42621;BME280;28252;53.336;-6.298;2023-02-24T01:38:11;101556.53;;;18.75;99.89
42621;BME280;28252;53.336;-6.298;2023-02-24T01:38:42;101556.53;;;18.75;100.00
42621;BME280;28252;53.336;-6.298;2023-02-24T01:39:18;101560.22;;;18.74;99.91
42621;BME280;28252;53.336;-6.298;2023-02-24T01:39:55;101549.44;;;18.74;100.00
42621;BME280;28252;53.336;-6.298;2023-02-24T01:40:28;101554.97;;;18.73;100.00
42621;BME280;28252;53.336;-6.298;2023-02-24T01:40:59;101558.53;;;18.73;99.85
42621;BME280;28252;53.336;-6.298;2023-02-24T01:41:32;101558.53;;;18.73;100.00
42621;BME280;28252;53.336;-6.298;2023-02-24T01:42:09;101556.81;;;18.72;100.00
42621;BME280;28252;53.336;-6.298;2023-02-24T01:42:46;101562.22;;;18.72;99.88
42621;BME280;28252;53.336;-6.298;2023-02-24T01:43:20;101565.91;;;18.71;99.84
42621;BME280;28252;53.336;-6.298;2023-02-24T01:44:01;101564.19;;;18.70;100.00
42621;BME280;28252;53.336;-6.298;2023-02-24T01:45:06;101569.59;;;18.70;100.00
42621;BME280;28252;53.336;-6.298;2023-02-24T01:45:44;101575.00;;;18.70;100.00
42621;BME280;28252;53.336;-6.298;2023-02-24T01:46:15;101564.19;;;18.70;100.00
42621;BME280;28252;53.336;-6.298;2023-02-24T01:46:49;101563.34;;;18.70;100.00
42621;BME280;28252;53.336;-6.298;2023-02-24T01:47:27;101566.19;;;18.68;100.00
42621;BME280;28252;53.336;-6.298;2023-02-24T01:48:02;101556.38;;;18.67;100.00
42621;BME280;28252;53.336;-6.298;2023-02-24T01:48:38;101553.69;;;18.67;100.00
42621;BME280;28252;53.336;-6.298;2023-02-24T01:49:50;101553.69;;;18.67;100.00
42621;BME280;28252;53.336;-6.298;2023-02-24T01:50:24;101546.56;;;18.66;100.00
42621;BME280;28252;53.336;-6.298;2023-02-24T01:50:56;101551.97;;;18.66;100.00
42621;BME280;28252;53.336;-6.298;2023-02-24T01:51:33;101546.56;;;18.66;100.00
42621;BME280;28252;53.336;-6.298;2023-02-24T01:52:16;101553.81;;;18.65;100.00
42621;BME280;28252;53.336;-6.298;2023-02-24T01:52:53;101547.56;;;18.65;100.00
42621;BME280;28252;53.336;-6.298;2023-02-24T01:53:27;101555.81;;;18.63;100.00
42621;BME280;28252;53.336;-6.298;2023-02-24T01:54:01;101552.97;;;18.65;100.00
42621;BME280;28252;53.336;-6.298;2023-02-24T01:54:39;101553.09;;;18.63;100.00
42621;BME280;28252;53.336;-6.298;2023-02-24T01:55:21;101549.56;;;18.63;100.00
42621;BME280;28252;53.336;-6.298;2023-02-24T01:55:58;101545.16;;;18.62;100.00
42621;BME280;28252;53.336;-6.298;2023-02-24T01:56:34;101544.31;;;18.61;100.00
42621;BME280;28252;53.336;-6.298;2023-02-24T01:57:11;101543.44;;;18.61;100.00
42621;BME280;28252;53.336;-6.298;2023-02-24T01:57:53;101547.84;;;18.62;100.00
42621;BME280;28252;53.336;-6.298;2023-02-24T01:58:29;101549.69;;;18.61;100.00
42621;BME280;28252;53.336;-6.298;2023-02-24T01:59:05;101542.59;;;18.60;100.00
42621;BME280;28252;53.336;-6.298;2023-02-24T01:59:46;101547.16;;;18.60;100.00
42621;BME280;28252;53.336;-6.298;2023-02-24T02:00:23;101547.16;;;18.60;100.00
42621;BME280;28252;53.336;-6.298;2023-02-24T02:01:23;101550.81;;;18.59;100.00
42621;BME280;28252;53.336;-6.298;2023-02-24T02:01:58;101550.81;;;18.59;100.00
42621;BME280;28252;53.336;-6.298;2023-02-24T02:02:36;101549.97;;;18.58;100.00
42621;BME280;28252;53.336;-6.298;2023-02-24T02:03:18;101545.41;;;18.59;100.00
42621;BME280;28252;53.336;-6.298;2023-02-24T02:03:50;101549.13;;;18.58;100.00
42621;BME280;28252;53.336;-6.298;2023-02-24T02:04:29;101546.44;;;18.58;100.00
42621;BME280;28252;53.336;-6.298;2023-02-24T02:05:04;101543.72;;;18.58;100.00
42621;BME280;28252;53.336;-6.298;2023-02-24T02:05:39;101546.56;;;18.56;100.00
42621;BME280;28252;53.336;-6.298;2023-02-24T02:06:12;101542.03;;;18.57;100.00
42621;BME280;28252;53.336;-6.298;2023-02-24T02:06:47;101541.19;;;18.56;100.00
42621;BME280;28252;53.336;-6.298;2023-02-24T02:07:20;101548.25;;;18.57;100.00
42621;BME280;28252;53.336;-6.298;2023-02-24T02:08:01;101545.69;;;18.56;100.00
42621;BME280;28252;53.336;-6.298;2023-02-24T02:08:33;101537.78;;;18.54;100.00
42621;BME280;28252;53.336;-6.298;2023-02-24T02:09:10;101537.78;;;18.54;100.00
42621;BME280;28252;53.336;-6.298;2023-02-24T02:09:47;101534.19;;;18.54;100.00
42621;BME280;28252;53.336;-6.298;2023-02-24T02:10:19;101528.81;;;18.54;100.00
42621;BME280;28252;53.336;-6.298;2023-02-24T02:10:52;101531.50;;;18.54;100.00
42621;BME280;28252;53.336;-6.298;2023-02-24T02:11:28;101531.50;;;18.54;100.00
42621;BME280;28252;53.336;-6.298;2023-02-24T02:12:08;101529.81;;;18.53;100.00
42621;BME280;28252;53.336;-6.298;2023-02-24T02:12:46;101529.81;;;18.53;100.00
42621;BME280;28252;53.336;-6.298;2023-02-24T02:13:23;101522.69;;;18.52;100.00
42621;BME280;28252;53.336;-6.298;2023-02-24T02:13:59;101519.16;;;18.51;100.00
42621;BME280;28252;53.336;-6.298;2023-02-24T02:14:32;101516.47;;;18.51;100.00
42621;BME280;28252;53.336;-6.298;2023-02-24T02:15:12;101517.31;;;18.52;100.00
42621;BME280;28252;53.336;-6.298;2023-02-24T02:15:54;101513.75;;;18.51;100.00
42621;BME280;28252;53.336;-6.298;2023-02-24T02:17:15;101515.59;;;18.51;100.00
42621;BME280;28252;53.336;-6.298;2023-02-24T02:21:57;101507.78;;;18.47;100.00
42621;BME280;28252;53.336;-6.298;2023-02-24T02:22:44;101510.50;;;18.47;100.00
42621;BME280;28252;53.336;-6.298;2023-02-24T02:23:30;101510.50;;;18.47;100.00
42621;BME280;28252;53.336;-6.298;2023-02-24T02:24:22;101506.06;;;18.46;100.00
42621;BME280;28252;53.336;-6.298;2023-02-24T02:28:37;101505.38;;;18.44;100.00
42621;BME280;28252;53.336;-6.298;2023-02-24T02:30:52;101506.34;;;18.43;100.00
42621;BME280;28252;53.336;-6.298;2023-02-24T02:32:34;101501.09;;;18.42;100.00
42621;BME280;28252;53.336;-6.298;2023-02-24T02:34:54;101504.81;;;18.41;100.00
42621;BME280;28252;53.336;-6.298;2023-02-24T02:35:30;101497.69;;;18.40;100.00
42621;BME280;28252;53.336;-6.298;2023-02-24T02:37:29;101498.66;;;18.39;100.00
42621;BME280;28252;53.336;-6.298;2023-02-24T02:39:15;101491.59;;;18.38;100.00
42621;BME280;28252;53.336;-6.298;2023-02-24T02:41:55;101491.72;;;18.36;100.00
42621;BME280;28252;53.336;-6.298;2023-02-24T02:43:13;101497.13;;;18.36;100.00
42621;BME280;28252;53.336;-6.298;2023-02-24T02:43:51;101491.72;;;18.36;100.00
42621;BME280;28252;53.336;-6.298;2023-02-24T02:44:36;101492.69;;;18.35;100.00
42621;BME280;28252;53.336;-6.298;2023-02-24T02:45:18;101489.28;;;18.33;100.00
42621;BME280;28252;53.336;-6.298;2023-02-24T02:45:56;101482.91;;;18.34;100.00
42621;BME280;28252;53.336;-6.298;2023-02-24T02:46:41;101477.53;;;18.34;100.00
42621;BME280;28252;53.336;-6.298;2023-02-24T02:47:24;101475.81;;;18.33;100.00
42621;BME280;28252;53.336;-6.298;2023-02-24T02:48:56;101474.13;;;18.32;100.00
42621;BME280;28252;53.336;-6.298;2023-02-24T02:49:36;101481.19;;;18.33;100.00
42621;BME280;28252;53.336;-6.298;2023-02-24T02:50:24;101481.19;;;18.33;100.00
42621;BME280;28252;53.336;-6.298;2023-02-24T02:51:02;101484.91;;;18.32;100.00
42621;BME280;28252;53.336;-6.298;2023-02-24T02:51:39;101471.56;;;18.31;100.00
42621;BME280;28252;53.336;-6.298;2023-02-24T02:52:16;101485.88;;;18.31;100.00
42621;BME280;28252;53.336;-6.298;2023-02-24T02:53:29;101482.34;;;18.31;100.00
42621;BME280;28252;53.336;-6.298;2023-02-24T02:54:55;101478.78;;;18.30;100.00
42621;BME280;28252;53.336;-6.298;2023-02-24T02:55:06;101474.41;;;18.29;100.00
42621;BME280;28252;53.336;-6.298;2023-02-24T02:55:40;101475.25;;;18.29;100.00
42621;BME280;28252;53.336;-6.298;2023-02-24T02:57:07;101471.69;;;18.29;100.00
42621;BME280;28252;53.336;-6.298;2023-02-24T02:57:43;101466.44;;;18.27;100.00
42621;BME280;28252;53.336;-6.298;2023-02-24T02:58:26;101461.88;;;18.28;100.00
42621;BME280;28252;53.336;-6.298;2023-02-24T02:59:04;101467.41;;;18.26;100.00
42621;BME280;28252;53.336;-6.298;2023-02-24T02:59:36;101465.59;;;18.27;100.00
42621;BME280;28252;53.336;-6.298;2023-02-24T03:00:17;101458.47;;;18.26;100.00
42621;BME280;28252;53.336;-6.298;2023-02-24T03:00:54;101463.88;;;18.26;100.00
42621;BME280;28252;53.336;-6.298;2023-02-24T03:01:35;101469.28;;;18.26;100.00
42621;BME280;28252;53.336;-6.298;2023-02-24T03:02:11;101467.56;;;18.25;100.00
42621;BME280;28252;53.336;-6.298;2023-02-24T03:02:53;101456.78;;;18.25;100.00
42621;BME280;28252;53.336;-6.298;2023-02-24T03:03:29;101461.31;;;18.24;100.00
42621;BME280;28252;53.336;-6.298;2023-02-24T03:04:02;101467.56;;;18.25;100.00
42621;BME280;28252;53.336;-6.298;2023-02-24T03:06:52;101465.00;;;18.23;100.00
42621;BME280;28252;53.336;-6.298;2023-02-24T03:07:29;101470.38;;;18.23;100.00
42621;BME280;28252;53.336;-6.298;2023-02-24T03:08:07;101469.53;;;18.23;100.00
42621;BME280;28252;53.336;-6.298;2023-02-24T03:08:45;101474.94;;;18.23;100.00
42621;BME280;28252;53.336;-6.298;2023-02-24T03:09:31;101469.53;;;18.23;100.00
42621;BME280;28252;53.336;-6.298;2023-02-24T03:10:08;101473.25;;;18.22;100.00
42621;BME280;28252;53.336;-6.298;2023-02-24T03:11:42;101470.69;;;18.20;100.00
42621;BME280;28252;53.336;-6.298;2023-02-24T03:12:19;101465.28;;;18.20;100.00
42621;BME280;28252;53.336;-6.298;2023-02-24T03:12:59;101466.13;;;18.21;100.00
42621;BME280;28252;53.336;-6.298;2023-02-24T03:13:33;101469.81;;;18.20;100.00
42621;BME280;28252;53.336;-6.298;2023-02-24T03:14:06;101464.41;;;18.20;100.00
42621;BME280;28252;53.336;-6.298;2023-02-24T03:14:43;101460.03;;;18.19;100.00
42621;BME280;28252;53.336;-6.298;2023-02-24T03:15:21;101467.13;;;18.20;100.00
42621;BME280;28252;53.336;-6.298;2023-02-24T03:15:56;101459.34;;;18.17;100.00
42621;BME280;28252;53.336;-6.298;2023-02-24T03:16:31;101461.84;;;18.18;100.00
42621;BME280;28252;53.336;-6.298;2023-02-24T03:17:10;101466.41;;;18.18;100.00
42621;BME280;28252;53.336;-6.298;2023-02-24T03:17:52;101477.19;;;18.18;100.00
42621;BME280;28252;53.336;-6.298;2023-02-24T03:18:32;101470.13;;;18.17;100.00
42621;BME280;28252;53.336;-6.298;2023-02-24T03:19:05;101468.41;;;18.16;100.00
42621;BME280;28252;53.336;-6.298;2023-02-24T03:19:39;101474.63;;;18.16;100.00
42621;BME280;28252;53.336;-6.298;2023-02-24T03:20:22;101470.13;;;18.17;100.00
42621;BME280;28252;53.336;-6.298;2023-02-24T03:21:05;101480.03;;;18.16;100.00
42621;BME280;28252;53.336;-6.298;2023-02-24T03:21:41;101477.31;;;18.16;100.00
42621;BME280;28252;53.336;-6.298;2023-02-24T03:22:23;101468.41;;;18.16;100.00
42621;BME280;28252;53.336;-6.298;2023-02-24T03:22:59;101467.56;;;18.15;100.00
42621;BME280;28252;53.336;-6.298;2023-02-24T03:23:37;101466.69;;;18.15;100.00
42621;BME280;28252;53.336;-6.298;2023-02-24T03:24:12;101464.13;;;18.13;100.00
42621;BME280;28252;53.336;-6.298;2023-02-24T03:24:47;101459.59;;;18.14;100.00
42621;BME280;28252;53.336;-6.298;2023-02-24T03:25:32;101466.81;;;18.13;100.00
42621;BME280;28252;53.336;-6.298;2023-02-24T03:26:14;101470.38;;;18.14;100.00
42621;BME280;28252;53.336;-6.298;2023-02-24T03:27:10;101453.34;;;18.13;100.00
42621;BME280;28252;53.336;-6.298;2023-02-24T03:27:50;101457.88;;;18.13;100.00
42621;BME280;28252;53.336;-6.298;2023-02-24T03:28:29;101452.50;;;18.13;100.00
42621;BME280;28252;53.336;-6.298;2023-02-24T03:29:14;101452.50;;;18.13;100.00
42621;BME280;28252;53.336;-6.298;2023-02-24T03:29:57;101448.94;;;18.12;100.00
42621;BME280;28252;53.336;-6.298;2023-02-24T03:30:52;101449.78;;;18.13;100.00
42621;BME280;28252;53.336;-6.298;2023-02-24T03:31:25;101457.03;;;18.12;100.00
42621;BME280;28252;53.336;-6.298;2023-02-24T03:32:02;101446.38;;;18.10;100.00
42621;BME280;28252;53.336;-6.298;2023-02-24T03:32:50;101443.69;;;18.10;100.00
42621;BME280;28252;53.336;-6.298;2023-02-24T03:33:29;101441.00;;;18.10;100.00
42621;BME280;28252;53.336;-6.298;2023-02-24T03:34:11;101438.31;;;18.10;100.00